Seaspan Raider — CFDY — position and weather

sailwx.info

Track history (hours):
 
Tides and Currents Weather Stations Pressure Air Temp Water Temp Dewpoint Dewpoint Depression Visibility Wind Speed Wind Dir Waves Ship Positions

Seaspan Raider

Last reported at 2017-Oct-20 12:30 UTC. Time now 2017-Oct-20 12:38 UTC.
Position N 49°37' W 124°28'.

Length 32 m; draft 3.7 m.

Type: Tow > 200 m length. MMSI: 316033783.

Date/timePositionNaut miles runAvg speedWind from/ knotsBaromVisibWave heightAir tempDewpointWater temp
2017-Oct-20 12:30N 49°37' W 124°28'2 4.5
2017-Oct-20 12:00N 49°39' W 124°31'3 5.1
2017-Oct-20 11:30N 49°41' W 124°34'2 4.5
2017-Oct-20 11:00N 49°41' W 124°37'3 6.0
2017-Oct-20 10:30N 49°39' W 124°34'3 6.4
2017-Oct-20 10:00N 49°37' W 124°30'3 6.1
2017-Oct-20 09:30N 49°35' W 124°26'4 7.1
2017-Oct-20 09:00N 49°33' W 124°21'5 9.4
2017-Oct-20 08:30N 49°32' W 124°15'5 9.6
2017-Oct-20 08:00N 49°29' W 124°09'5 9.7
2017-Oct-20 07:30N 49°27' W 124°02'5 9.9
2017-Oct-20 07:00N 49°25' W 123°54'5 9.4
2017-Oct-20 06:30N 49°24' W 123°48'5 9.3
2017-Oct-20 06:00N 49°22' W 123°41'5 9.2
2017-Oct-20 05:30N 49°21' W 123°34'5 9.3
2017-Oct-20 05:00N 49°20' W 123°27'4 8.8
2017-Oct-20 04:30N 49°19' W 123°21'5 9.1
2017-Oct-20 04:00N 49°19' W 123°14'4 8.4
2017-Oct-20 03:30N 49°18' W 123°07'1 1.2
2017-Oct-20 03:00N 49°19' W 123°06'0 0.1
2017-Oct-20 02:30N 49°19' W 123°06'0 0.1
2017-Oct-20 02:00N 49°19' W 123°06'0 0.3
2017-Oct-20 01:30N 49°19' W 123°06'0 0.0
2017-Oct-20 01:00N 49°19' W 123°06'0 0.0
2017-Oct-20 00:30N 49°19' W 123°06'0 0.0
2017-Oct-20 00:00N 49°19' W 123°06'0 0.2
2017-Oct-19 23:29N 49°19' W 123°06'0 0.0
2017-Oct-19 23:00N 49°19' W 123°06'0 0.0
2017-Oct-19 22:30N 49°19' W 123°06'0 0.0
2017-Oct-19 22:00N 49°19' W 123°06'0 0.0
2017-Oct-19 21:30N 49°19' W 123°06'0 0.0
2017-Oct-19 20:59N 49°19' W 123°06'0 0.0
2017-Oct-19 20:30N 49°19' W 123°06'0 0.0
2017-Oct-19 19:58N 49°19' W 123°06'0 0.0
2017-Oct-19 19:25N 49°19' W 123°06'0 0.0
2017-Oct-19 19:00N 49°19' W 123°06'0 0.0
2017-Oct-19 18:30N 49°19' W 123°06'0 0.0
2017-Oct-19 18:00N 49°19' W 123°06'0 0.0
2017-Oct-19 17:30N 49°19' W 123°06'0 0.0
2017-Oct-19 17:00N 49°19' W 123°06'0 0.0
2017-Oct-19 16:30N 49°19' W 123°06'0 0.0
2017-Oct-19 16:00N 49°19' W 123°06'0 0.0
2017-Oct-19 15:30N 49°19' W 123°06'0 0.0
2017-Oct-19 15:00N 49°19' W 123°06'0 0.0
2017-Oct-19 14:30N 49°19' W 123°06'  
2017-Oct-15 18:09N 49°19' W 123°06'0 0.2
2017-Oct-15 18:00N 49°19' W 123°06'2 3.3
2017-Oct-15 17:30N 49°19' W 123°09'4 7.8
2017-Oct-15 17:00N 49°18' W 123°15'4 8.0
2017-Oct-15 16:30N 49°15' W 123°19'5 9.1
2017-Oct-15 16:00N 49°11' W 123°19'5 9.1
2017-Oct-15 15:30N 49°06' W 123°21'4 7.8
2017-Oct-15 15:00N 49°03' W 123°19'9 8.6
2017-Oct-15 14:00N 48°57' W 123°09'4 8.5
2017-Oct-15 13:30N 48°54' W 123°04'4 8.3
2017-Oct-15 13:00N 48°51' W 123°01'4 7.1
2017-Oct-15 12:30N 48°47' W 123°00'13 6.4
2017-Oct-15 10:25N 48°37' W 123°14'3 7.7
2017-Oct-15 10:00N 48°34' W 123°12'4 8.2
2017-Oct-15 09:30N 48°30' W 123°11'5 9.3
2017-Oct-15 09:00N 48°26' W 123°09'5 9.0
2017-Oct-15 08:30N 48°22' W 123°13'4 8.9
2017-Oct-15 08:00N 48°19' W 123°18'4 8.5
2017-Oct-15 07:28N 48°16' W 123°24'35 8.4
2017-Oct-15 03:22N 48°19' W 124°15'4 8.4
2017-Oct-15 02:57N 48°20' W 124°20'4 8.4
2017-Oct-15 02:27N 48°22' W 124°26'4 7.9
2017-Oct-15 02:00N 48°23' W 124°31'4 7.6
2017-Oct-15 01:30N 48°25' W 124°36'4 7.6
2017-Oct-15 01:00N 48°26' W 124°41'102 7.4
2017-Oct-14 11:15N 46°45' W 124°45'2 7.9
2017-Oct-14 11:00N 46°43' W 124°44'4 8.0
2017-Oct-14 10:30N 46°39' W 124°41'4 8.2
2017-Oct-14 10:00N 46°36' W 124°39'4 8.4
2017-Oct-14 09:30N 46°32' W 124°37'4 8.2
2017-Oct-14 09:00N 46°28' W 124°35'4 8.0
2017-Oct-14 08:30N 46°24' W 124°32'4 7.8
2017-Oct-14 08:00N 46°21' W 124°29'4 7.8
2017-Oct-14 07:30N 46°19' W 124°25'4 7.9
2017-Oct-14 07:01N 46°16' W 124°21'4 7.8
2017-Oct-14 06:30N 46°13' W 124°16'4 7.5
2017-Oct-14 06:00N 46°12' W 124°11'4 8.8
2017-Oct-14 05:30N 46°15' W 124°06'5 9.0
2017-Oct-14 05:00N 46°14' W 123°59'5 8.5
2017-Oct-14 04:27N 46°11' W 123°54'3 7.5
2017-Oct-14 04:00N 46°12' W 123°49'1 1.3
2017-Oct-14 03:21N 46°12' W 123°50'0 0.0
2017-Oct-14 03:01N 46°12' W 123°50'0 0.0
2017-Oct-14 02:30N 46°12' W 123°50'0 0.0
2017-Oct-14 02:00N 46°12' W 123°50'0 0.0
2017-Oct-14 01:30N 46°12' W 123°50'0 0.0
2017-Oct-14 01:00N 46°12' W 123°50'0 0.0
2017-Oct-14 00:31N 46°12' W 123°50'0 0.0
2017-Oct-14 00:00N 46°12' W 123°50'4 8.6
2017-Oct-13 23:31N 46°12' W 123°56'3 5.4
2017-Oct-13 23:00N 46°14' W 123°59'3 5.7
2017-Oct-13 22:30N 46°15' W 124°03'3 5.2
2017-Oct-13 22:00N 46°15' W 124°06'4 5.2
2017-Oct-13 21:15N 46°13' W 124°11'1 3.3
2017-Oct-13 21:00N 46°12' W 124°12'2 3.7
2017-Oct-13 20:30N 46°13' W 124°15'1 2.8
2017-Oct-13 20:00N 46°13' W 124°17'1 2.9
2017-Oct-13 19:30N 46°14' W 124°18'1 2.8
2017-Oct-13 19:01N 46°15' W 124°20'3 5.0
2017-Oct-13 18:21N 46°18' W 124°23'2 5.6
2017-Oct-13 18:00N 46°19' W 124°25'4 5.6
2017-Oct-13 17:14N 46°22' W 124°29'1 5.7
2017-Oct-13 17:00N 46°23' W 124°31'3 5.7
2017-Oct-13 16:30N 46°25' W 124°33'3 5.7
2017-Oct-13 16:00N 46°28' W 124°35'3 5.8
2017-Oct-13 15:30N 46°30' W 124°37'3 5.8
2017-Oct-13 15:00N 46°33' W 124°39'3 5.8
2017-Oct-13 14:30N 46°35' W 124°42'4 5.8
2017-Oct-13 13:51N 46°39' W 124°44'2 5.9
2017-Oct-13 13:30N 46°40' W 124°46'4 5.8
2017-Oct-13 12:50N 46°44' W 124°48'3 5.9
2017-Oct-13 12:24N 46°46' W 124°49'3 6.1
2017-Oct-13 11:54N 46°49' W 124°51'97 6.2
2017-Oct-12 20:08N 48°26' W 124°46'1 8.2
2017-Oct-12 20:00N 48°26' W 124°44'4 8.1
2017-Oct-12 19:30N 48°25' W 124°38'4 8.0
2017-Oct-12 19:00N 48°23' W 124°33'4 7.8
2017-Oct-12 18:30N 48°22' W 124°27'34 6.1
2017-Oct-12 12:55N 48°12' W 123°39'3 7.8
2017-Oct-12 12:30N 48°12' W 123°34'4 7.3
2017-Oct-12 11:57N 48°14' W 123°28'15 8.5
2017-Oct-12 10:13N 48°24' W 123°12'210.2
2017-Oct-12 10:00N 48°26' W 123°12'510.3
2017-Oct-12 09:30N 48°31' W 123°12'510.0
2017-Oct-12 09:00N 48°36' W 123°14'8 8.1
2017-Oct-12 08:03N 48°43' W 123°11'110.7
2017-Oct-12 07:59N 48°44' W 123°10'7 8.8
2017-Oct-12 07:13N 48°47' W 123°01'2 7.6
2017-Oct-12 07:00N 48°48' W 122°60'4 8.3
2017-Oct-12 06:29N 48°52' W 123°03'4 8.1
2017-Oct-12 06:00N 48°54' W 123°08'4 8.2
2017-Oct-12 05:30N 48°57' W 123°13'4 7.9
2017-Oct-12 05:00N 48°59' W 123°17'4 7.8
2017-Oct-12 04:30N 49°02' W 123°22'4 7.6
2017-Oct-12 04:00N 49°05' W 123°26'4 7.6
2017-Oct-12 03:30N 49°08' W 123°29'4 7.5
2017-Oct-12 03:00N 49°10' W 123°33'4 7.4
2017-Oct-12 02:30N 49°13' W 123°37'4 7.2
2017-Oct-12 02:00N 49°16' W 123°41'4 7.2
2017-Oct-12 01:30N 49°18' W 123°45'4 7.4
2017-Oct-12 01:00N 49°21' W 123°49'4 7.2
2017-Oct-12 00:30N 49°23' W 123°54'4 7.5
2017-Oct-12 00:00N 49°25' W 123°58'4 7.4
2017-Oct-11 23:30N 49°27' W 124°03'4 7.3
2017-Oct-11 23:00N 49°29' W 124°08'4 7.6
2017-Oct-11 22:30N 49°31' W 124°13'4 7.6
2017-Oct-11 22:00N 49°33' W 124°18'4 7.5
2017-Oct-11 21:30N 49°35' W 124°23'4 7.5
2017-Oct-11 21:00N 49°37' W 124°28'4 7.6
2017-Oct-11 20:30N 49°39' W 124°32'3 6.2
2017-Oct-11 20:00N 49°42' W 124°34'0 0.5
2017-Oct-11 19:30N 49°42' W 124°34'0 0.1
2017-Oct-11 19:00N 49°42' W 124°34'1 1.9
2017-Oct-11 18:29N 49°42' W 124°33'0 0.0
2017-Oct-11 18:00N 49°42' W 124°33'0 0.0
2017-Oct-11 17:30N 49°42' W 124°33'0 0.0
2017-Oct-11 16:57N 49°42' W 124°33'61 3.6
2017-Oct-11 00:00N 49°19' W 123°06'0 0.0
2017-Oct-10 23:30N 49°19' W 123°06'0 0.0
2017-Oct-10 23:00N 49°19' W 123°06'0 0.0
2017-Oct-10 22:30N 49°19' W 123°06'0 0.0
2017-Oct-10 21:58N 49°19' W 123°06'0 0.0
2017-Oct-10 21:30N 49°19' W 123°06'0 0.0
2017-Oct-10 21:00N 49°19' W 123°06'0 0.0
2017-Oct-10 20:30N 49°19' W 123°06'0 0.0
2017-Oct-10 20:00N 49°19' W 123°06'0 0.0
2017-Oct-10 19:29N 49°19' W 123°06'0 0.0
2017-Oct-10 18:57N 49°19' W 123°06'0 0.0
2017-Oct-10 18:19N 49°19' W 123°06'0 0.0
2017-Oct-10 17:56N 49°19' W 123°06'0 0.0
2017-Oct-10 17:30N 49°19' W 123°06'0 0.0
2017-Oct-10 17:00N 49°19' W 123°06'0 0.0
2017-Oct-10 16:27N 49°19' W 123°06'0 0.0
2017-Oct-10 16:00N 49°19' W 123°06'0 0.0
2017-Oct-10 15:30N 49°19' W 123°06'0 0.0
2017-Oct-10 15:00N 49°19' W 123°06'0 0.0
2017-Oct-10 14:00N 49°19' W 123°06'0 0.0
2017-Oct-10 13:30N 49°19' W 123°06'0 0.0
2017-Oct-10 13:00N 49°19' W 123°06'  
Track history (hours):
 
Tides and Currents Weather Stations Pressure Air Temp Water Temp Dewpoint Dewpoint Depression Visibility Wind Speed Wind Dir Waves Ship Positions

Seaspan Raider

Last reported at 2017-Oct-20 12:30 UTC. Time now 2017-Oct-20 12:38 UTC.
Position N 49°37' W 124°28'.

Length 32 m; draft 3.7 m.

Type: Tow > 200 m length. MMSI: 316033783.

Date/timePositionNaut miles runAvg speedWind from/ knotsBaromVisibWave heightAir tempDewpointWater temp
2017-Oct-20 12:30N 49°37' W 124°28'2 4.5
2017-Oct-20 12:00N 49°39' W 124°31'3 5.1
2017-Oct-20 11:30N 49°41' W 124°34'2 4.5
2017-Oct-20 11:00N 49°41' W 124°37'3 6.0
2017-Oct-20 10:30N 49°39' W 124°34'3 6.4
2017-Oct-20 10:00N 49°37' W 124°30'3 6.1
2017-Oct-20 09:30N 49°35' W 124°26'4 7.1
2017-Oct-20 09:00N 49°33' W 124°21'5 9.4
2017-Oct-20 08:30N 49°32' W 124°15'5 9.6
2017-Oct-20 08:00N 49°29' W 124°09'5 9.7
2017-Oct-20 07:30N 49°27' W 124°02'5 9.9
2017-Oct-20 07:00N 49°25' W 123°54'5 9.4
2017-Oct-20 06:30N 49°24' W 123°48'5 9.3
2017-Oct-20 06:00N 49°22' W 123°41'5 9.2
2017-Oct-20 05:30N 49°21' W 123°34'5 9.3
2017-Oct-20 05:00N 49°20' W 123°27'4 8.8
2017-Oct-20 04:30N 49°19' W 123°21'5 9.1
2017-Oct-20 04:00N 49°19' W 123°14'4 8.4
2017-Oct-20 03:30N 49°18' W 123°07'1 1.2
2017-Oct-20 03:00N 49°19' W 123°06'0 0.1
2017-Oct-20 02:30N 49°19' W 123°06'0 0.1
2017-Oct-20 02:00N 49°19' W 123°06'0 0.3
2017-Oct-20 01:30N 49°19' W 123°06'0 0.0
2017-Oct-20 01:00N 49°19' W 123°06'0 0.0
2017-Oct-20 00:30N 49°19' W 123°06'0 0.0
2017-Oct-20 00:00N 49°19' W 123°06'0 0.2
2017-Oct-19 23:29N 49°19' W 123°06'0 0.0
2017-Oct-19 23:00N 49°19' W 123°06'0 0.0
2017-Oct-19 22:30N 49°19' W 123°06'0 0.0
2017-Oct-19 22:00N 49°19' W 123°06'0 0.0
2017-Oct-19 21:30N 49°19' W 123°06'0 0.0
2017-Oct-19 20:59N 49°19' W 123°06'0 0.0
2017-Oct-19 20:30N 49°19' W 123°06'0 0.0
2017-Oct-19 19:58N 49°19' W 123°06'0 0.0
2017-Oct-19 19:25N 49°19' W 123°06'0 0.0
2017-Oct-19 19:00N 49°19' W 123°06'0 0.0
2017-Oct-19 18:30N 49°19' W 123°06'0 0.0
2017-Oct-19 18:00N 49°19' W 123°06'0 0.0
2017-Oct-19 17:30N 49°19' W 123°06'0 0.0
2017-Oct-19 17:00N 49°19' W 123°06'0 0.0
2017-Oct-19 16:30N 49°19' W 123°06'0 0.0
2017-Oct-19 16:00N 49°19' W 123°06'0 0.0
2017-Oct-19 15:30N 49°19' W 123°06'0 0.0
2017-Oct-19 15:00N 49°19' W 123°06'0 0.0
2017-Oct-19 14:30N 49°19' W 123°06'  
2017-Oct-15 18:09N 49°19' W 123°06'0 0.2
2017-Oct-15 18:00N 49°19' W 123°06'2 3.3
2017-Oct-15 17:30N 49°19' W 123°09'4 7.8
2017-Oct-15 17:00N 49°18' W 123°15'4 8.0
2017-Oct-15 16:30N 49°15' W 123°19'5 9.1
2017-Oct-15 16:00N 49°11' W 123°19'5 9.1
2017-Oct-15 15:30N 49°06' W 123°21'4 7.8
2017-Oct-15 15:00N 49°03' W 123°19'9 8.6
2017-Oct-15 14:00N 48°57' W 123°09'4 8.5
2017-Oct-15 13:30N 48°54' W 123°04'4 8.3
2017-Oct-15 13:00N 48°51' W 123°01'4 7.1
2017-Oct-15 12:30N 48°47' W 123°00'13 6.4
2017-Oct-15 10:25N 48°37' W 123°14'3 7.7
2017-Oct-15 10:00N 48°34' W 123°12'4 8.2
2017-Oct-15 09:30N 48°30' W 123°11'5 9.3
2017-Oct-15 09:00N 48°26' W 123°09'5 9.0
2017-Oct-15 08:30N 48°22' W 123°13'4 8.9
2017-Oct-15 08:00N 48°19' W 123°18'4 8.5
2017-Oct-15 07:28N 48°16' W 123°24'35 8.4
2017-Oct-15 03:22N 48°19' W 124°15'4 8.4
2017-Oct-15 02:57N 48°20' W 124°20'4 8.4
2017-Oct-15 02:27N 48°22' W 124°26'4 7.9
2017-Oct-15 02:00N 48°23' W 124°31'4 7.6
2017-Oct-15 01:30N 48°25' W 124°36'4 7.6
2017-Oct-15 01:00N 48°26' W 124°41'102 7.4
2017-Oct-14 11:15N 46°45' W 124°45'2 7.9
2017-Oct-14 11:00N 46°43' W 124°44'4 8.0
2017-Oct-14 10:30N 46°39' W 124°41'4 8.2
2017-Oct-14 10:00N 46°36' W 124°39'4 8.4
2017-Oct-14 09:30N 46°32' W 124°37'4 8.2
2017-Oct-14 09:00N 46°28' W 124°35'4 8.0
2017-Oct-14 08:30N 46°24' W 124°32'4 7.8
2017-Oct-14 08:00N 46°21' W 124°29'4 7.8
2017-Oct-14 07:30N 46°19' W 124°25'4 7.9
2017-Oct-14 07:01N 46°16' W 124°21'4 7.8
2017-Oct-14 06:30N 46°13' W 124°16'4 7.5
2017-Oct-14 06:00N 46°12' W 124°11'4 8.8
2017-Oct-14 05:30N 46°15' W 124°06'5 9.0
2017-Oct-14 05:00N 46°14' W 123°59'5 8.5
2017-Oct-14 04:27N 46°11' W 123°54'3 7.5
2017-Oct-14 04:00N 46°12' W 123°49'1 1.3
2017-Oct-14 03:21N 46°12' W 123°50'0 0.0
2017-Oct-14 03:01N 46°12' W 123°50'0 0.0
2017-Oct-14 02:30N 46°12' W 123°50'0 0.0
2017-Oct-14 02:00N 46°12' W 123°50'0 0.0
2017-Oct-14 01:30N 46°12' W 123°50'0 0.0
2017-Oct-14 01:00N 46°12' W 123°50'0 0.0
2017-Oct-14 00:31N 46°12' W 123°50'0 0.0
2017-Oct-14 00:00N 46°12' W 123°50'4 8.6
2017-Oct-13 23:31N 46°12' W 123°56'3 5.4
2017-Oct-13 23:00N 46°14' W 123°59'3 5.7
2017-Oct-13 22:30N 46°15' W 124°03'3 5.2
2017-Oct-13 22:00N 46°15' W 124°06'4 5.2
2017-Oct-13 21:15N 46°13' W 124°11'1 3.3
2017-Oct-13 21:00N 46°12' W 124°12'2 3.7
2017-Oct-13 20:30N 46°13' W 124°15'1 2.8
2017-Oct-13 20:00N 46°13' W 124°17'1 2.9
2017-Oct-13 19:30N 46°14' W 124°18'1 2.8
2017-Oct-13 19:01N 46°15' W 124°20'3 5.0
2017-Oct-13 18:21N 46°18' W 124°23'2 5.6
2017-Oct-13 18:00N 46°19' W 124°25'4 5.6
2017-Oct-13 17:14N 46°22' W 124°29'1 5.7
2017-Oct-13 17:00N 46°23' W 124°31'3 5.7
2017-Oct-13 16:30N 46°25' W 124°33'3 5.7
2017-Oct-13 16:00N 46°28' W 124°35'3 5.8
2017-Oct-13 15:30N 46°30' W 124°37'3 5.8
2017-Oct-13 15:00N 46°33' W 124°39'3 5.8
2017-Oct-13 14:30N 46°35' W 124°42'4 5.8
2017-Oct-13 13:51N 46°39' W 124°44'2 5.9
2017-Oct-13 13:30N 46°40' W 124°46'4 5.8
2017-Oct-13 12:50N 46°44' W 124°48'3 5.9
2017-Oct-13 12:24N 46°46' W 124°49'3 6.1
2017-Oct-13 11:54N 46°49' W 124°51'97 6.2
2017-Oct-12 20:08N 48°26' W 124°46'1 8.2
2017-Oct-12 20:00N 48°26' W 124°44'4 8.1
2017-Oct-12 19:30N 48°25' W 124°38'4 8.0
2017-Oct-12 19:00N 48°23' W 124°33'4 7.8
2017-Oct-12 18:30N 48°22' W 124°27'34 6.1
2017-Oct-12 12:55N 48°12' W 123°39'3 7.8
2017-Oct-12 12:30N 48°12' W 123°34'4 7.3
2017-Oct-12 11:57N 48°14' W 123°28'15 8.5
2017-Oct-12 10:13N 48°24' W 123°12'210.2
2017-Oct-12 10:00N 48°26' W 123°12'510.3
2017-Oct-12 09:30N 48°31' W 123°12'510.0
2017-Oct-12 09:00N 48°36' W 123°14'8 8.1
2017-Oct-12 08:03N 48°43' W 123°11'110.7
2017-Oct-12 07:59N 48°44' W 123°10'7 8.8
2017-Oct-12 07:13N 48°47' W 123°01'2 7.6
2017-Oct-12 07:00N 48°48' W 122°60'4 8.3
2017-Oct-12 06:29N 48°52' W 123°03'4 8.1
2017-Oct-12 06:00N 48°54' W 123°08'4 8.2
2017-Oct-12 05:30N 48°57' W 123°13'4 7.9
2017-Oct-12 05:00N 48°59' W 123°17'4 7.8
2017-Oct-12 04:30N 49°02' W 123°22'4 7.6
2017-Oct-12 04:00N 49°05' W 123°26'4 7.6
2017-Oct-12 03:30N 49°08' W 123°29'4 7.5
2017-Oct-12 03:00N 49°10' W 123°33'4 7.4
2017-Oct-12 02:30N 49°13' W 123°37'4 7.2
2017-Oct-12 02:00N 49°16' W 123°41'4 7.2
2017-Oct-12 01:30N 49°18' W 123°45'4 7.4
2017-Oct-12 01:00N 49°21' W 123°49'4 7.2
2017-Oct-12 00:30N 49°23' W 123°54'4 7.5
2017-Oct-12 00:00N 49°25' W 123°58'4 7.4
2017-Oct-11 23:30N 49°27' W 124°03'4 7.3
2017-Oct-11 23:00N 49°29' W 124°08'4 7.6
2017-Oct-11 22:30N 49°31' W 124°13'4 7.6
2017-Oct-11 22:00N 49°33' W 124°18'4 7.5
2017-Oct-11 21:30N 49°35' W 124°23'4 7.5
2017-Oct-11 21:00N 49°37' W 124°28'4 7.6
2017-Oct-11 20:30N 49°39' W 124°32'3 6.2
2017-Oct-11 20:00N 49°42' W 124°34'0 0.5
2017-Oct-11 19:30N 49°42' W 124°34'0 0.1
2017-Oct-11 19:00N 49°42' W 124°34'1 1.9
2017-Oct-11 18:29N 49°42' W 124°33'0 0.0
2017-Oct-11 18:00N 49°42' W 124°33'0 0.0
2017-Oct-11 17:30N 49°42' W 124°33'0 0.0
2017-Oct-11 16:57N 49°42' W 124°33'61 3.6
2017-Oct-11 00:00N 49°19' W 123°06'0 0.0
2017-Oct-10 23:30N 49°19' W 123°06'0 0.0
2017-Oct-10 23:00N 49°19' W 123°06'0 0.0
2017-Oct-10 22:30N 49°19' W 123°06'0 0.0
2017-Oct-10 21:58N 49°19' W 123°06'0 0.0
2017-Oct-10 21:30N 49°19' W 123°06'0 0.0
2017-Oct-10 21:00N 49°19' W 123°06'0 0.0
2017-Oct-10 20:30N 49°19' W 123°06'0 0.0
2017-Oct-10 20:00N 49°19' W 123°06'0 0.0
2017-Oct-10 19:29N 49°19' W 123°06'0 0.0
2017-Oct-10 18:57N 49°19' W 123°06'0 0.0
2017-Oct-10 18:19N 49°19' W 123°06'0 0.0
2017-Oct-10 17:56N 49°19' W 123°06'0 0.0
2017-Oct-10 17:30N 49°19' W 123°06'0 0.0
2017-Oct-10 17:00N 49°19' W 123°06'0 0.0
2017-Oct-10 16:27N 49°19' W 123°06'0 0.0
2017-Oct-10 16:00N 49°19' W 123°06'0 0.0
2017-Oct-10 15:30N 49°19' W 123°06'0 0.0
2017-Oct-10 15:00N 49°19' W 123°06'0 0.0
2017-Oct-10 14:00N 49°19' W 123°06'0 0.0
2017-Oct-10 13:30N 49°19' W 123°06'0 0.0
2017-Oct-10 13:00N 49°19' W 123°06'  

Dump ship's entire track history